Time;durP1;ratioP1;P1;durP2;ratioP2;P2;SDS_P1;SDS_P2;PMS_P1;PMS_P2;Temp;Humidity;BMP_temperature;BMP_pressure;BME280_temperature;BME280_humidity;BME280_pressure;Samples;Min_cycle;Max_cycle;Signal;HPM_P1;HPM_P2
2023/12/13 00:00:10;;;;;;;7.90;3.10;;;;;;;;;;4912456;29;20039;-73
2023/12/13 00:02:40;;;;;;;8.88;3.72;;;;;;;;;;4911198;29;20032;-73
2023/12/13 00:05:07;;;;;;;5.80;2.70;;;;;;;;;;4913711;29;20070;-73
2023/12/13 00:07:33;;;;;;;4.30;3.20;;;;;;;;;;4896496;29;20046;-73
2023/12/13 00:09:59;;;;;;;3.10;2.58;;;;;;;;;;4896193;29;20043;-73
2023/12/13 00:12:27;;;;;;;12.13;3.65;;;;;;;;;;4913520;29;20103;-73
2023/12/13 00:14:55;;;;;;;8.65;3.45;;;;;;;;;;4896104;29;20451;-74
2023/12/13 00:17:22;;;;;;;3.08;2.75;;;;;;;;;;4913375;29;20415;-74
2023/12/13 00:19:48;;;;;;;10.15;2.92;;;;;;;;;;4912761;29;20392;-74
2023/12/13 00:22:14;;;;;;;3.03;2.72;;;;;;;;;;4890616;29;20095;-74
2023/12/13 00:24:40;;;;;;;5.00;3.30;;;;;;;;;;4912396;29;20039;-73
2023/12/13 00:27:07;;;;;;;8.32;3.38;;;;;;;;;;4880721;29;20048;-74
2023/12/13 00:29:34;;;;;;;3.60;2.65;;;;;;;;;;4908046;29;20419;-73
2023/12/13 00:32:01;;;;;;;3.40;2.38;;;;;;;;;;4882276;29;20127;-74
2023/12/13 00:34:27;;;;;;;2.88;2.60;;;;;;;;;;4914494;29;20452;-73
2023/12/13 00:36:53;;;;;;;4.35;3.35;;;;;;;;;;4911291;29;20419;-73
2023/12/13 00:39:20;;;;;;;11.30;3.17;;;;;;;;;;4912248;29;20035;-74
2023/12/13 00:41:46;;;;;;;2.28;2.10;;;;;;;;;;4864577;29;20032;-73
2023/12/13 00:44:15;;;;;;;9.50;3.63;;;;;;;;;;4912075;29;20519;-73
2023/12/13 00:46:41;;;;;;;8.07;3.58;;;;;;;;;;4906532;29;20052;-73
2023/12/13 00:49:08;;;;;;;8.00;3.05;;;;;;;;;;4906486;29;20040;-73
2023/12/13 00:51:35;;;;;;;2.42;2.28;;;;;;;;;;4903032;29;20100;-73
2023/12/13 00:54:01;;;;;;;15.90;4.47;;;;;;;;;;4905168;29;20093;-74
2023/12/13 00:56:30;;;;;;;3.25;2.97;;;;;;;;;;4888388;29;20044;-74
2023/12/13 00:58:59;;;;;;;6.93;2.75;;;;;;;;;;4885483;29;20526;-74
2023/12/13 01:01:26;;;;;;;23.30;3.47;;;;;;;;;;4886825;29;20555;-73
2023/12/13 01:03:52;;;;;;;7.18;2.83;;;;;;;;;;4911944;29;20028;-73
2023/12/13 01:06:18;;;;;;;5.95;3.75;;;;;;;;;;4887729;29;20488;-73
2023/12/13 01:08:44;;;;;;;5.72;3.38;;;;;;;;;;4889112;29;20138;-73
2023/12/13 01:11:14;;;;;;;6.15;3.22;;;;;;;;;;4886263;29;20614;-74
2023/12/13 01:13:41;;;;;;;7.32;2.28;;;;;;;;;;4885662;29;20036;-74
2023/12/13 01:16:07;;;;;;;8.32;3.08;;;;;;;;;;4889599;29;20040;-74
2023/12/13 01:18:33;;;;;;;7.00;3.50;;;;;;;;;;4905697;29;20043;-73
2023/12/13 01:20:58;;;;;;;5.40;2.42;;;;;;;;;;4912313;29;20122;-74
2023/12/13 01:23:25;;;;;;;26.67;4.22;;;;;;;;;;4908866;29;20032;-73
2023/12/13 01:25:50;;;;;;;2.58;2.42;;;;;;;;;;4901571;29;20041;-73
2023/12/13 01:28:16;;;;;;;9.15;3.38;;;;;;;;;;4887341;29;20036;-74
2023/12/13 01:30:42;;;;;;;4.32;2.85;;;;;;;;;;4903841;29;20033;-72
2023/12/13 01:33:08;;;;;;;5.78;3.13;;;;;;;;;;4888392;29;20075;-74
2023/12/13 01:35:33;;;;;;;3.78;2.80;;;;;;;;;;4905872;29;20514;-73
2023/12/13 01:37:59;;;;;;;8.10;3.60;;;;;;;;;;4884891;29;20048;-73
2023/12/13 01:40:25;;;;;;;3.05;2.75;;;;;;;;;;4886258;29;20578;-73
2023/12/13 01:42:51;;;;;;;2.80;2.33;;;;;;;;;;4887836;29;20379;-73
2023/12/13 01:45:17;;;;;;;9.10;3.35;;;;;;;;;;4903865;29;20032;-73
2023/12/13 01:47:43;;;;;;;11.13;1.88;;;;;;;;;;4885877;29;20045;-73
2023/12/13 01:50:09;;;;;;;2.67;2.17;;;;;;;;;;4876220;29;20032;-73
2023/12/13 01:52:36;;;;;;;6.70;3.15;;;;;;;;;;4884547;29;20041;-74
2023/12/13 01:55:02;;;;;;;6.82;2.92;;;;;;;;;;4890650;29;20049;-73
2023/12/13 01:57:29;;;;;;;7.88;2.50;;;;;;;;;;4912639;29;20055;-74
2023/12/13 01:59:55;;;;;;;6.50;2.63;;;;;;;;;;4909809;29;20115;-74
2023/12/13 02:02:21;;;;;;;10.95;3.38;;;;;;;;;;4907050;29;20051;-73
2023/12/13 02:04:47;;;;;;;7.03;2.90;;;;;;;;;;4888048;29;20036;-74
2023/12/13 02:07:13;;;;;;;3.15;2.85;;;;;;;;;;4906490;29;20048;-73
2023/12/13 02:09:39;;;;;;;4.90;2.78;;;;;;;;;;4873185;29;20167;-73
2023/12/13 02:12:05;;;;;;;13.27;3.40;;;;;;;;;;4908476;29;20123;-73
2023/12/13 02:14:31;;;;;;;3.08;2.75;;;;;;;;;;4907159;29;20092;-74
2023/12/13 02:16:57;;;;;;;6.38;3.28;;;;;;;;;;4903861;29;20499;-73
2023/12/13 02:19:23;;;;;;;4.18;2.45;;;;;;;;;;4908544;29;20096;-74
2023/12/13 02:21:49;;;;;;;7.43;2.47;;;;;;;;;;4882552;29;20546;-73
2023/12/13 02:24:17;;;;;;;2.38;2.20;;;;;;;;;;4908327;29;20513;-74
2023/12/13 02:26:43;;;;;;;8.35;3.00;;;;;;;;;;4893659;29;20115;-74
2023/12/13 02:29:09;;;;;;;9.40;2.95;;;;;;;;;;4905804;29;20528;-74
2023/12/13 02:31:35;;;;;;;6.28;2.80;;;;;;;;;;4904420;29;20076;-73
2023/12/13 02:34:01;;;;;;;4.85;3.03;;;;;;;;;;4907561;29;20075;-73
2023/12/13 02:36:27;;;;;;;5.07;2.13;;;;;;;;;;4914360;29;20043;-73
2023/12/13 02:38:55;;;;;;;3.78;2.42;;;;;;;;;;4909236;29;20036;-73
2023/12/13 02:41:21;;;;;;;4.20;2.42;;;;;;;;;;4907161;29;20123;-73
2023/12/13 02:43:46;;;;;;;5.72;3.10;;;;;;;;;;4886040;29;20464;-73
2023/12/13 02:46:12;;;;;;;9.77;2.55;;;;;;;;;;4907409;29;20123;-73
2023/12/13 02:48:38;;;;;;;6.10;2.95;;;;;;;;;;4905602;29;20037;-72
2023/12/13 02:51:04;;;;;;;6.13;2.75;;;;;;;;;;4882396;29;20087;-73
2023/12/13 02:53:30;;;;;;;12.32;3.85;;;;;;;;;;4894262;29;20557;-73
2023/12/13 02:55:56;;;;;;;10.85;2.97;;;;;;;;;;4903862;29;20662;-74
2023/12/13 02:58:22;;;;;;;4.47;2.10;;;;;;;;;;4908683;29;20513;-74
2023/12/13 03:00:48;;;;;;;7.07;3.60;;;;;;;;;;4874243;29;20083;-73
2023/12/13 03:03:14;;;;;;;4.20;3.50;;;;;;;;;;4874488;29;20511;-73
2023/12/13 03:05:40;;;;;;;4.43;2.08;;;;;;;;;;4908312;29;20054;-74
2023/12/13 03:08:05;;;;;;;2.40;2.20;;;;;;;;;;4903920;29;20051;-74
2023/12/13 03:10:32;;;;;;;4.13;2.38;;;;;;;;;;4878121;29;20045;-73
2023/12/13 03:12:57;;;;;;;7.28;3.50;;;;;;;;;;4914883;29;20546;-73
2023/12/13 03:15:23;;;;;;;3.60;2.88;;;;;;;;;;4905905;29;20036;-73
2023/12/13 03:17:49;;;;;;;2.42;2.22;;;;;;;;;;4908131;29;20047;-73
2023/12/13 03:20:15;;;;;;;4.32;2.30;;;;;;;;;;4890255;29;20521;-73
2023/12/13 03:22:41;;;;;;;4.00;2.35;;;;;;;;;;4906728;29;20396;-73
2023/12/13 03:25:07;;;;;;;2.15;1.77;;;;;;;;;;4910734;29;20059;-74
2023/12/13 03:27:32;;;;;;;5.47;2.30;;;;;;;;;;4909467;29;20063;-73
2023/12/13 03:29:58;;;;;;;4.78;1.95;;;;;;;;;;4908358;29;20036;-74
2023/12/13 03:32:24;;;;;;;6.15;3.33;;;;;;;;;;4891794;29;20043;-73
2023/12/13 03:34:50;;;;;;;3.78;2.65;;;;;;;;;;4876722;29;20578;-73
2023/12/13 03:37:16;;;;;;;2.20;2.00;;;;;;;;;;4910101;29;20081;-74
2023/12/13 03:39:42;;;;;;;15.98;3.85;;;;;;;;;;4908985;29;20467;-73
2023/12/13 03:42:07;;;;;;;7.63;3.55;;;;;;;;;;4911733;29;20515;-73
2023/12/13 03:44:33;;;;;;;9.75;2.83;;;;;;;;;;4907326;29;20055;-73
2023/12/13 03:46:59;;;;;;;4.63;3.00;;;;;;;;;;4888660;29;20411;-73
2023/12/13 03:49:25;;;;;;;7.38;2.33;;;;;;;;;;4911213;29;20539;-74
2023/12/13 03:51:50;;;;;;;11.82;3.38;;;;;;;;;;4892582;29;20040;-73
2023/12/13 03:54:16;;;;;;;9.18;3.42;;;;;;;;;;4888695;29;20025;-73
2023/12/13 03:56:42;;;;;;;4.50;2.80;;;;;;;;;;4888539;29;20063;-73
2023/12/13 03:59:08;;;;;;;7.18;2.47;;;;;;;;;;4895515;29;20526;-73
2023/12/13 04:01:34;;;;;;;8.18;2.80;;;;;;;;;;4912132;29;20530;-73
2023/12/13 04:04:01;;;;;;;3.72;2.47;;;;;;;;;;4913327;29;20035;-73
2023/12/13 04:06:28;;;;;;;10.75;3.00;;;;;;;;;;4913219;29;20143;-73
2023/12/13 04:08:55;;;;;;;6.63;3.15;;;;;;;;;;4911239;29;20050;-74
2023/12/13 04:11:22;;;;;;;4.55;2.50;;;;;;;;;;4909287;29;20538;-74
2023/12/13 04:13:47;;;;;;;9.80;2.50;;;;;;;;;;4886683;29;20033;-74
2023/12/13 04:16:13;;;;;;;6.70;2.70;;;;;;;;;;4888995;29;20043;-73
2023/12/13 04:18:39;;;;;;;7.40;2.60;;;;;;;;;;4904636;29;20128;-72
2023/12/13 04:21:05;;;;;;;3.88;2.63;;;;;;;;;;4889842;29;20061;-74
2023/12/13 04:23:31;;;;;;;7.15;2.95;;;;;;;;;;4890013;29;20048;-74
2023/12/13 04:25:57;;;;;;;8.75;2.70;;;;;;;;;;4900733;29;20040;-74
2023/12/13 04:28:23;;;;;;;4.30;2.65;;;;;;;;;;4904699;29;20028;-73
2023/12/13 04:30:49;;;;;;;5.47;2.38;;;;;;;;;;4905059;29;20043;-73
2023/12/13 04:33:18;;;;;;;9.05;3.00;;;;;;;;;;4904040;29;20068;-74
2023/12/13 04:35:45;;;;;;;12.73;3.10;;;;;;;;;;4903252;29;20467;-73
2023/12/13 04:38:11;;;;;;;4.43;2.28;;;;;;;;;;4901216;29;20092;-73
2023/12/13 04:40:37;;;;;;;14.52;3.00;;;;;;;;;;4900038;29;20045;-73
2023/12/13 04:43:03;;;;;;;5.97;3.33;;;;;;;;;;4871795;29;20339;-73
2023/12/13 04:45:29;;;;;;;5.75;3.15;;;;;;;;;;4884463;29;20033;-73
2023/12/13 04:47:55;;;;;;;5.18;2.80;;;;;;;;;;4872151;29;20110;-73
2023/12/13 04:50:22;;;;;;;9.45;3.70;;;;;;;;;;4896973;29;20044;-73
2023/12/13 04:52:49;;;;;;;8.05;3.72;;;;;;;;;;4909103;29;20043;-73
2023/12/13 04:55:15;;;;;;;9.98;3.80;;;;;;;;;;4873070;29;20040;-73
2023/12/13 04:57:41;;;;;;;5.97;3.25;;;;;;;;;;4886465;29;20060;-72
2023/12/13 05:00:07;;;;;;;4.82;2.78;;;;;;;;;;4873330;29;20131;-73
2023/12/13 05:02:34;;;;;;;3.55;2.65;;;;;;;;;;4906366;29;20040;-72
2023/12/13 05:05:00;;;;;;;2.63;2.38;;;;;;;;;;4885426;29;20122;-73
2023/12/13 05:07:27;;;;;;;10.48;3.03;;;;;;;;;;4886722;29;20131;-72
2023/12/13 05:09:55;;;;;;;10.48;3.50;;;;;;;;;;4888441;29;20072;-73
2023/12/13 05:12:21;;;;;;;5.88;3.33;;;;;;;;;;4901130;29;20115;-74
2023/12/13 05:14:47;;;;;;;5.35;3.72;;;;;;;;;;4890949;29;20380;-73
2023/12/13 05:17:13;;;;;;;6.35;2.85;;;;;;;;;;4886822;29;20028;-74
2023/12/13 05:19:39;;;;;;;4.07;2.90;;;;;;;;;;4904968;29;20044;-75
2023/12/13 05:22:05;;;;;;;3.08;2.88;;;;;;;;;;4894064;29;20122;-76
2023/12/13 05:24:31;;;;;;;11.32;3.92;;;;;;;;;;4893771;29;20159;-76
2023/12/13 05:26:57;;;;;;;17.55;4.35;;;;;;;;;;4872484;29;20052;-76
2023/12/13 05:29:22;;;;;;;11.32;3.78;;;;;;;;;;4909156;29;20036;-76
2023/12/13 05:31:48;;;;;;;4.63;2.88;;;;;;;;;;4905805;29;20044;-76
2023/12/13 05:34:14;;;;;;;8.57;3.97;;;;;;;;;;4914242;29;20036;-77
2023/12/13 05:36:40;;;;;;;7.03;3.65;;;;;;;;;;4907792;29;20047;-75
2023/12/13 05:39:07;;;;;;;8.35;3.22;;;;;;;;;;4912262;29;20067;-77
2023/12/13 05:41:33;;;;;;;14.98;2.83;;;;;;;;;;4910191;29;20040;-76
2023/12/13 05:43:59;;;;;;;11.63;3.05;;;;;;;;;;4907268;29;20033;-76
2023/12/13 05:46:24;;;;;;;11.88;3.28;;;;;;;;;;4912539;29;20059;-75
2023/12/13 05:48:51;;;;;;;11.13;2.80;;;;;;;;;;4908386;29;20323;-77
2023/12/13 05:51:16;;;;;;;3.13;2.13;;;;;;;;;;4892245;29;20585;-79
2023/12/13 05:53:42;;;;;;;6.45;3.08;;;;;;;;;;4880923;29;20043;-76
2023/12/13 05:56:09;;;;;;;3.95;2.80;;;;;;;;;;4911623;29;20151;-75
2023/12/13 05:58:35;;;;;;;19.27;3.65;;;;;;;;;;4915782;29;20087;-76
2023/12/13 06:01:01;;;;;;;4.03;2.85;;;;;;;;;;4897044;29;20418;-76
2023/12/13 06:03:27;;;;;;;10.52;3.25;;;;;;;;;;4891526;29;20036;-77
2023/12/13 06:05:54;;;;;;;6.38;3.03;;;;;;;;;;4893059;29;20044;-77
2023/12/13 06:08:19;;;;;;;4.10;2.47;;;;;;;;;;4911492;29;20028;-77
2023/12/13 06:10:45;;;;;;;6.43;2.50;;;;;;;;;;4914419;29;20566;-78
2023/12/13 06:13:11;;;;;;;7.65;2.65;;;;;;;;;;4891063;29;20134;-80
2023/12/13 06:15:38;;;;;;;9.40;3.47;;;;;;;;;;4906746;29;20056;-75
2023/12/13 06:18:04;;;;;;;7.28;3.47;;;;;;;;;;4906608;29;20040;-76
2023/12/13 06:20:30;;;;;;;6.55;2.50;;;;;;;;;;4912141;29;20035;-77
2023/12/13 06:22:56;;;;;;;15.15;2.78;;;;;;;;;;4891148;29;20032;-75
2023/12/13 06:25:22;;;;;;;8.32;2.72;;;;;;;;;;4916128;29;20039;-77
2023/12/13 06:27:49;;;;;;;20.00;3.38;;;;;;;;;;4891653;29;20072;-75
2023/12/13 06:30:15;;;;;;;6.35;2.38;;;;;;;;;;4904875;29;20028;-77
2023/12/13 06:32:40;;;;;;;7.20;2.88;;;;;;;;;;4881892;29;20059;-78
2023/12/13 06:35:06;;;;;;;3.70;2.60;;;;;;;;;;4911577;29;20064;-76
2023/12/13 06:37:32;;;;;;;6.00;2.78;;;;;;;;;;4874352;29;20039;-76
2023/12/13 06:39:59;;;;;;;11.73;2.92;;;;;;;;;;4908675;29;20040;-76
2023/12/13 06:42:25;;;;;;;5.80;2.85;;;;;;;;;;4891623;29;20028;-77
2023/12/13 06:44:51;;;;;;;9.98;3.83;;;;;;;;;;4897805;29;20075;-78
2023/12/13 06:47:17;;;;;;;10.68;4.28;;;;;;;;;;4882992;29;20060;-77
2023/12/13 06:49:43;;;;;;;4.18;2.78;;;;;;;;;;4909002;29;20033;-77
2023/12/13 06:52:09;;;;;;;8.43;3.28;;;;;;;;;;4915214;29;20032;-78
2023/12/13 06:54:34;;;;;;;8.93;2.55;;;;;;;;;;4913964;29;20047;-78
2023/12/13 06:57:01;;;;;;;3.85;2.58;;;;;;;;;;4906938;29;20048;-77
2023/12/13 06:59:27;;;;;;;14.75;2.78;;;;;;;;;;4905789;29;20511;-76
2023/12/13 07:01:52;;;;;;;3.55;2.10;;;;;;;;;;4893643;29;20056;-77
2023/12/13 07:04:18;;;;;;;27.95;3.25;;;;;;;;;;4872552;29;20044;-74
2023/12/13 07:06:44;;;;;;;6.00;2.47;;;;;;;;;;4913858;29;20082;-74
2023/12/13 07:09:10;;;;;;;5.32;3.83;;;;;;;;;;4889264;29;20041;-74
2023/12/13 07:11:36;;;;;;;4.88;3.08;;;;;;;;;;4916176;29;20074;-75
2023/12/13 07:14:02;;;;;;;11.95;3.17;;;;;;;;;;4912702;29;20513;-75
2023/12/13 07:16:28;;;;;;;6.45;2.78;;;;;;;;;;4900193;29;20067;-75
2023/12/13 07:18:54;;;;;;;12.82;4.00;;;;;;;;;;4910254;29;20044;-75
2023/12/13 07:21:20;;;;;;;5.93;3.40;;;;;;;;;;4919086;29;20419;-77
2023/12/13 07:23:46;;;;;;;10.60;2.97;;;;;;;;;;4912272;29;20491;-74
2023/12/13 07:26:12;;;;;;;5.75;2.70;;;;;;;;;;4896788;29;20475;-75
2023/12/13 07:28:37;;;;;;;17.05;3.95;;;;;;;;;;4881298;29;20043;-75
2023/12/13 07:31:04;;;;;;;12.35;3.13;;;;;;;;;;4879851;29;20447;-75
2023/12/13 07:33:33;;;;;;;12.77;2.67;;;;;;;;;;4865163;29;20423;-76
2023/12/13 07:35:59;;;;;;;5.40;3.38;;;;;;;;;;4890203;29;20068;-76
2023/12/13 07:38:25;;;;;;;6.07;2.33;;;;;;;;;;4911903;29;20099;-75
2023/12/13 07:40:51;;;;;;;5.13;3.28;;;;;;;;;;4866953;29;20515;-75
2023/12/13 07:43:17;;;;;;;28.13;4.57;;;;;;;;;;4897795;29;20044;-76
2023/12/13 07:45:43;;;;;;;5.97;3.08;;;;;;;;;;4913435;29;20099;-75
2023/12/13 07:48:09;;;;;;;14.07;3.78;;;;;;;;;;4897643;29;20039;-76
2023/12/13 07:50:34;;;;;;;9.75;3.20;;;;;;;;;;4894532;29;20040;-76
2023/12/13 07:53:00;;;;;;;8.23;2.80;;;;;;;;;;4910740;29;21183;-78
2023/12/13 07:55:26;;;;;;;12.00;3.70;;;;;;;;;;4898825;29;20029;-76
2023/12/13 07:57:52;;;;;;;6.28;3.45;;;;;;;;;;4910026;29;20561;-79
2023/12/13 08:00:18;;;;;;;10.65;3.95;;;;;;;;;;4914325;29;20040;-78
2023/12/13 08:02:45;;;;;;;5.45;3.22;;;;;;;;;;4899423;29;20040;-76
2023/12/13 08:05:13;;;;;;;6.80;2.45;;;;;;;;;;4896860;29;20570;-76
2023/12/13 08:07:39;;;;;;;7.47;2.88;;;;;;;;;;4911184;29;20048;-76
2023/12/13 08:10:06;;;;;;;6.25;3.20;;;;;;;;;;4913136;29;20463;-76
2023/12/13 08:12:34;;;;;;;7.80;3.00;;;;;;;;;;4896320;29;20076;-76
2023/12/13 08:15:01;;;;;;;17.20;3.58;;;;;;;;;;4914825;29;20039;-75
2023/12/13 08:17:27;;;;;;;4.30;2.67;;;;;;;;;;4898488;29;20068;-76
2023/12/13 08:19:54;;;;;;;7.20;3.28;;;;;;;;;;4899465;29;20047;-73
2023/12/13 08:22:19;;;;;;;12.00;3.90;;;;;;;;;;4914077;29;20044;-72
2023/12/13 08:24:45;;;;;;;9.15;3.17;;;;;;;;;;4914012;29;20036;-71
2023/12/13 08:27:11;;;;;;;10.70;3.88;;;;;;;;;;4913716;29;20056;-72
2023/12/13 08:29:37;;;;;;;9.77;3.55;;;;;;;;;;4914142;29;20044;-72
2023/12/13 08:32:03;;;;;;;14.20;3.88;;;;;;;;;;4913709;29;20694;-73
2023/12/13 08:34:28;;;;;;;14.80;3.90;;;;;;;;;;4914042;29;20506;-71
2023/12/13 08:36:54;;;;;;;3.65;2.75;;;;;;;;;;4912039;29;20088;-72
2023/12/13 08:39:21;;;;;;;9.50;3.90;;;;;;;;;;4899026;29;20088;-72
2023/12/13 08:41:47;;;;;;;7.93;2.90;;;;;;;;;;4893100;29;20075;-72
2023/12/13 08:44:13;;;;;;;4.07;2.70;;;;;;;;;;4877947;29;20503;-72
2023/12/13 08:46:39;;;;;;;9.40;3.28;;;;;;;;;;4880453;29;20074;-73
2023/12/13 08:49:05;;;;;;;14.52;4.57;;;;;;;;;;4904769;29;20028;-73
2023/12/13 08:51:30;;;;;;;9.13;3.22;;;;;;;;;;4911229;29;20499;-75
2023/12/13 08:53:56;;;;;;;12.20;3.38;;;;;;;;;;4880948;29;20131;-73
2023/12/13 08:56:22;;;;;;;17.63;4.45;;;;;;;;;;4865470;29;20052;-72
2023/12/13 08:58:48;;;;;;;22.55;4.25;;;;;;;;;;4894590;29;20504;-73
2023/12/13 09:01:14;;;;;;;7.55;3.22;;;;;;;;;;4894543;29;20046;-71
2023/12/13 09:03:40;;;;;;;10.52;3.28;;;;;;;;;;4924633;29;20036;-73
2023/12/13 09:06:06;;;;;;;7.75;3.28;;;;;;;;;;4912877;29;20491;-71
2023/12/13 09:08:33;;;;;;;15.98;3.67;;;;;;;;;;4897299;29;20096;-73
2023/12/13 09:10:59;;;;;;;7.40;3.20;;;;;;;;;;4887423;29;20414;-72
2023/12/13 09:13:25;;;;;;;5.88;2.83;;;;;;;;;;4881540;29;20048;-74
2023/12/13 09:15:51;;;;;;;8.95;2.92;;;;;;;;;;4862469;29;20036;-74
2023/12/13 09:18:17;;;;;;;16.33;4.10;;;;;;;;;;4894640;29;20049;-73
2023/12/13 09:20:43;;;;;;;7.20;3.65;;;;;;;;;;4895280;29;20242;-73
2023/12/13 09:23:21;;;;;;;12.18;3.53;;;;;;;;;;4892951;29;20574;-74
2023/12/13 09:25:48;;;;;;;14.57;3.90;;;;;;;;;;4894731;29;20507;-74
2023/12/13 09:28:13;;;;;;;4.28;2.17;;;;;;;;;;4894252;29;20041;-73
2023/12/13 09:30:39;;;;;;;19.42;4.72;;;;;;;;;;4877968;29;20059;-71
2023/12/13 09:33:05;;;;;;;3.72;2.72;;;;;;;;;;4878524;29;20365;-71
2023/12/13 09:35:32;;;;;;;11.45;4.95;;;;;;;;;;4877924;29;20036;-72
2023/12/13 09:37:58;;;;;;;14.30;3.85;;;;;;;;;;4882216;29;20414;-73
2023/12/13 09:40:24;;;;;;;9.23;3.67;;;;;;;;;;4913312;29;20028;-72
2023/12/13 09:42:49;;;;;;;12.07;3.17;;;;;;;;;;4893274;29;20048;-74
2023/12/13 09:45:20;;;;;;;5.45;2.20;;;;;;;;;;4892542;29;20071;-72
2023/12/13 09:47:46;;;;;;;7.88;2.90;;;;;;;;;;4904991;29;20576;-74
2023/12/13 09:50:11;;;;;;;12.57;3.40;;;;;;;;;;4894060;29;20033;-72
2023/12/13 09:52:37;;;;;;;15.52;3.92;;;;;;;;;;4877479;29;20046;-73
2023/12/13 09:55:03;;;;;;;13.57;4.25;;;;;;;;;;4893893;29;20029;-73
2023/12/13 09:57:30;;;;;;;11.48;4.00;;;;;;;;;;4877631;29;20143;-72
2023/12/13 09:59:56;;;;;;;9.48;2.67;;;;;;;;;;4894015;29;20132;-74
2023/12/13 10:02:21;;;;;;;12.73;4.13;;;;;;;;;;4896484;29;20407;-73
2023/12/13 10:04:47;;;;;;;17.25;3.30;;;;;;;;;;4902599;29;20040;-74
2023/12/13 10:07:14;;;;;;;12.00;3.38;;;;;;;;;;4893890;29;20111;-73
2023/12/13 10:09:40;;;;;;;7.45;3.88;;;;;;;;;;4911990;29;20044;-72
2023/12/13 10:12:12;;;;;;;3.47;2.45;;;;;;;;;;4912211;29;20064;-74
2023/12/13 10:14:38;;;;;;;14.85;4.78;;;;;;;;;;4896093;29;20500;-74
2023/12/13 10:17:04;;;;;;;7.30;3.72;;;;;;;;;;4882113;29;20043;-73
2023/12/13 10:19:31;;;;;;;16.90;4.45;;;;;;;;;;4883687;29;20044;-73
2023/12/13 10:21:56;;;;;;;14.60;4.65;;;;;;;;;;4883842;29;20123;-74
2023/12/13 10:24:23;;;;;;;9.10;3.15;;;;;;;;;;4897276;29;20140;-73
2023/12/13 10:26:50;;;;;;;18.13;4.65;;;;;;;;;;4903475;29;20051;-73
2023/12/13 10:29:18;;;;;;;15.20;3.15;;;;;;;;;;4897779;29;20566;-73
2023/12/13 10:31:45;;;;;;;8.75;3.20;;;;;;;;;;4911936;29;20123;-73
2023/12/13 10:34:10;;;;;;;13.82;4.43;;;;;;;;;;4881410;29;20040;-74
2023/12/13 10:36:36;;;;;;;19.63;4.25;;;;;;;;;;4888347;29;20521;-73
2023/12/13 10:39:03;;;;;;;7.38;2.88;;;;;;;;;;4902596;29;20044;-73
2023/12/13 10:41:29;;;;;;;5.47;2.85;;;;;;;;;;4897281;29;20072;-71
2023/12/13 10:43:58;;;;;;;10.32;3.67;;;;;;;;;;4881110;29;20044;-72
2023/12/13 10:46:25;;;;;;;18.13;3.80;;;;;;;;;;4915307;29;20123;-72
2023/12/13 10:48:52;;;;;;;12.38;4.25;;;;;;;;;;4912564;29;20028;-71
2023/12/13 10:51:18;;;;;;;16.08;4.13;;;;;;;;;;4914485;29;20039;-72
2023/12/13 10:53:45;;;;;;;24.90;5.55;;;;;;;;;;4913519;29;20040;-72
2023/12/13 10:56:10;;;;;;;12.25;4.05;;;;;;;;;;4912117;29;20044;-73
2023/12/13 10:58:36;;;;;;;12.75;3.88;;;;;;;;;;4865373;29;20115;-73
2023/12/13 11:01:02;;;;;;;10.38;4.38;;;;;;;;;;4896137;29;20376;-73
2023/12/13 11:03:35;;;;;;;13.55;4.35;;;;;;;;;;4895038;29;20522;-73
2023/12/13 11:06:04;;;;;;;5.88;3.33;;;;;;;;;;4897755;29;20183;-72
2023/12/13 11:08:36;;;;;;;13.90;4.18;;;;;;;;;;4912453;29;20036;-72
2023/12/13 11:11:02;;;;;;;15.23;3.58;;;;;;;;;;4880103;29;20115;-71
2023/12/13 11:13:28;;;;;;;11.80;4.10;;;;;;;;;;4915199;29;20036;-72
2023/12/13 11:15:54;;;;;;;14.50;3.40;;;;;;;;;;4897709;29;20032;-73
2023/12/13 11:18:20;;;;;;;10.00;3.67;;;;;;;;;;4905415;29;20115;-73
2023/12/13 11:20:47;;;;;;;13.40;4.55;;;;;;;;;;4864050;29;20127;-73
2023/12/13 11:23:13;;;;;;;15.70;4.28;;;;;;;;;;4875061;29;20064;-73
2023/12/13 11:25:39;;;;;;;16.05;5.10;;;;;;;;;;4897143;29;20082;-71
2023/12/13 11:28:05;;;;;;;10.07;3.60;;;;;;;;;;4908898;29;20036;-72
2023/12/13 11:30:31;;;;;;;16.55;4.43;;;;;;;;;;4896327;29;20040;-71
2023/12/13 11:32:57;;;;;;;21.90;4.03;;;;;;;;;;4899980;29;20475;-72
2023/12/13 11:35:24;;;;;;;12.73;3.65;;;;;;;;;;4914983;29;20618;-72
2023/12/13 11:37:50;;;;;;;22.10;4.68;;;;;;;;;;4911768;29;20063;-73
2023/12/13 11:40:16;;;;;;;13.65;3.58;;;;;;;;;;4902205;29;20111;-71
2023/12/13 11:42:42;;;;;;;13.15;4.20;;;;;;;;;;4865195;29;20130;-72
2023/12/13 11:45:08;;;;;;;21.35;4.78;;;;;;;;;;4863204;29;20088;-71
2023/12/13 11:47:34;;;;;;;9.25;3.92;;;;;;;;;;4896135;29;20052;-73
2023/12/13 11:50:00;;;;;;;12.23;3.55;;;;;;;;;;4863504;29;20591;-72
2023/12/13 11:52:26;;;;;;;9.82;3.70;;;;;;;;;;4896159;29;20044;-71
2023/12/13 11:54:52;;;;;;;15.90;4.75;;;;;;;;;;4863595;29;20515;-71
2023/12/13 11:57:18;;;;;;;14.80;3.75;;;;;;;;;;4878945;29;20065;-72
2023/12/13 11:59:45;;;;;;;4.53;2.92;;;;;;;;;;4868499;29;20032;-71
2023/12/13 12:02:11;;;;;;;10.85;3.65;;;;;;;;;;4897575;29;20091;-72
2023/12/13 12:04:36;;;;;;;18.27;4.65;;;;;;;;;;4909672;29;20460;-72
2023/12/13 12:07:04;;;;;;;15.52;4.05;;;;;;;;;;4914169;29;20060;-71
2023/12/13 12:09:30;;;;;;;14.98;3.53;;;;;;;;;;4882147;29;20128;-71
2023/12/13 12:11:57;;;;;;;16.10;3.60;;;;;;;;;;4879071;29;20139;-72
2023/12/13 12:14:29;;;;;;;6.28;3.58;;;;;;;;;;4895616;29;20064;-71
2023/12/13 12:16:57;;;;;;;21.45;4.38;;;;;;;;;;4895435;29;20092;-71
2023/12/13 12:19:23;;;;;;;5.13;3.28;;;;;;;;;;4895400;29;20145;-71
2023/12/13 12:21:49;;;;;;;6.28;2.25;;;;;;;;;;4863308;29;20029;-72
2023/12/13 12:24:15;;;;;;;19.05;4.20;;;;;;;;;;4878557;29;20036;-72
2023/12/13 12:26:41;;;;;;;23.55;5.40;;;;;;;;;;4895405;29;20049;-72
2023/12/13 12:29:07;;;;;;;11.07;5.13;;;;;;;;;;4894979;29;20060;-72
2023/12/13 12:31:33;;;;;;;8.02;2.78;;;;;;;;;;4878647;29;20157;-73
2023/12/13 12:33:59;;;;;;;20.52;3.92;;;;;;;;;;4878254;29;20389;-72
2023/12/13 12:36:25;;;;;;;11.65;4.07;;;;;;;;;;4895047;29;20119;-71
2023/12/13 12:38:51;;;;;;;9.23;4.15;;;;;;;;;;4872849;29;20143;-73
2023/12/13 12:41:22;;;;;;;11.32;3.47;;;;;;;;;;4913748;29;20036;-72
2023/12/13 12:43:49;;;;;;;15.73;4.10;;;;;;;;;;4915033;29;20497;-71
2023/12/13 12:46:16;;;;;;;21.63;4.50;;;;;;;;;;4913691;29;20052;-72
2023/12/13 12:48:42;;;;;;;6.45;3.35;;;;;;;;;;4912947;29;20102;-71
2023/12/13 12:51:08;;;;;;;10.13;3.33;;;;;;;;;;4877737;29;20036;-72
2023/12/13 12:53:34;;;;;;;5.90;2.78;;;;;;;;;;4892138;29;20135;-72
2023/12/13 12:56:00;;;;;;;22.13;4.15;;;;;;;;;;4894530;29;20052;-70
2023/12/13 12:58:26;;;;;;;18.10;3.78;;;;;;;;;;4862695;29;20036;-71
2023/12/13 13:00:52;;;;;;;5.53;3.40;;;;;;;;;;4894129;29;20176;-73
2023/12/13 13:03:18;;;;;;;31.67;4.72;;;;;;;;;;4884497;29;20044;-72
2023/12/13 13:05:45;;;;;;;15.93;3.88;;;;;;;;;;4894248;29;20044;-74
2023/12/13 13:08:14;;;;;;;9.65;3.72;;;;;;;;;;4877599;29;20069;-74
2023/12/13 13:10:40;;;;;;;13.15;4.15;;;;;;;;;;4886017;29;20454;-72
2023/12/13 13:13:05;;;;;;;17.08;3.00;;;;;;;;;;4891376;29;20071;-72
2023/12/13 13:15:32;;;;;;;6.45;2.95;;;;;;;;;;4894528;29;20251;-72
2023/12/13 13:17:57;;;;;;;21.25;3.35;;;;;;;;;;4911959;29;20107;-73
2023/12/13 13:20:24;;;;;;;16.13;3.90;;;;;;;;;;4894621;29;20156;-73
2023/12/13 13:22:49;;;;;;;9.70;3.70;;;;;;;;;;4894669;29;20044;-73
2023/12/13 13:25:16;;;;;;;35.50;3.90;;;;;;;;;;4911715;29;20055;-73
2023/12/13 13:27:44;;;;;;;10.98;3.50;;;;;;;;;;4895826;29;20143;-73
2023/12/13 13:30:11;;;;;;;36.47;5.25;;;;;;;;;;4896701;29;20036;-73
2023/12/13 13:32:40;;;;;;;15.63;4.63;;;;;;;;;;4913613;29;20063;-72
2023/12/13 13:35:06;;;;;;;22.08;3.67;;;;;;;;;;4896184;29;20639;-73
2023/12/13 13:37:34;;;;;;;17.70;3.47;;;;;;;;;;4913610;29;20507;-73
2023/12/13 13:39:59;;;;;;;5.63;3.03;;;;;;;;;;4881112;29;20054;-73
2023/12/13 13:42:25;;;;;;;26.73;4.80;;;;;;;;;;4880855;29;20036;-73
2023/12/13 13:44:51;;;;;;;15.02;4.03;;;;;;;;;;4914264;29;20046;-72
2023/12/13 13:47:17;;;;;;;14.32;4.57;;;;;;;;;;4914492;29;20047;-73
2023/12/13 13:49:44;;;;;;;13.68;4.18;;;;;;;;;;4896535;29;20283;-73
2023/12/13 13:52:09;;;;;;;9.48;3.45;;;;;;;;;;4899362;29;20040;-73
2023/12/13 13:54:35;;;;;;;16.60;4.50;;;;;;;;;;4899999;29;20047;-72
2023/12/13 13:57:04;;;;;;;9.18;1.95;;;;;;;;;;4901294;29;20052;-73
2023/12/13 13:59:30;;;;;;;15.20;4.10;;;;;;;;;;4879704;29;20032;-73
2023/12/13 14:01:56;;;;;;;15.82;4.10;;;;;;;;;;4868618;29;20069;-73
2023/12/13 14:04:22;;;;;;;9.23;4.18;;;;;;;;;;4899620;29;20623;-73
2023/12/13 14:06:48;;;;;;;12.85;3.83;;;;;;;;;;4898358;29;20051;-73
2023/12/13 14:09:14;;;;;;;11.60;2.95;;;;;;;;;;4876054;29;20032;-74
2023/12/13 14:11:40;;;;;;;21.75;4.13;;;;;;;;;;4905420;29;20041;-73
2023/12/13 14:14:06;;;;;;;13.18;4.15;;;;;;;;;;4904658;29;20039;-73
2023/12/13 14:16:33;;;;;;;15.55;3.72;;;;;;;;;;4873827;29;20072;-73
2023/12/13 14:19:01;;;;;;;7.75;2.97;;;;;;;;;;4888173;29;20048;-73
2023/12/13 14:21:27;;;;;;;9.35;4.25;;;;;;;;;;4888085;29;20043;-72
2023/12/13 14:23:53;;;;;;;22.50;3.38;;;;;;;;;;4888222;29;20036;-72
2023/12/13 14:26:18;;;;;;;6.68;2.65;;;;;;;;;;4887713;29;20095;-73
2023/12/13 14:28:44;;;;;;;6.82;3.25;;;;;;;;;;4890194;29;20040;-74
2023/12/13 14:31:10;;;;;;;13.95;3.95;;;;;;;;;;4905589;29;20092;-73